Wetterdaten: Woche 08.05.17 - 14.05.17 (KW19)
Datum Zeit Temp. A. Feuchte A. Luftdruck Regen Wind Richtung Taupunkt Windchill Windben
08.05.2017 00:00 8,9 C 96 % 1015,4 hPa 0,5 l/m 0,6 km/h (0 Bft) O 8,3 C 8,9 C 1,9 km/h (1 Bft)
08.05.2017 01:00 8,8 C 96 % 1015,5 hPa 2,3 l/m 0,3 km/h (0 Bft) O 8,3 C 8,8 C 1,9 km/h (1 Bft)
08.05.2017 02:00 8,7 C 97 % 1015,3 hPa 1,8 l/m 0,4 km/h (0 Bft) O 8,3 C 8,7 C 1,6 km/h (1 Bft)
08.05.2017 03:00 8,5 C 97 % 1015,2 hPa 0,0 l/m 0,5 km/h (0 Bft) O 8,0 C 8,5 C 2,3 km/h (1 Bft)
08.05.2017 04:00 8,5 C 96 % 1015,2 hPa 0,0 l/m 1,5 km/h (1 Bft) O 7,9 C 8,5 C 4,8 km/h (1 Bft)
08.05.2017 05:00 8,4 C 96 % 1015,3 hPa 0,0 l/m 2,2 km/h (1 Bft) O-NO 7,8 C 8,4 C 6,3 km/h (2 Bft)
08.05.2017 06:00 8,1 C 96 % 1015,5 hPa 0,0 l/m 3,1 km/h (1 Bft) O-NO 7,5 C 8,1 C 8,2 km/h (2 Bft)
08.05.2017 07:00 7,9 C 96 % 1015,9 hPa 0,0 l/m 2,6 km/h (1 Bft) O-NO 7,2 C 7,9 C 7,4 km/h (2 Bft)
08.05.2017 08:00 7,7 C 96 % 1016,2 hPa 0,0 l/m 3,5 km/h (1 Bft) O-NO 7,1 C 7,7 C 9,8 km/h (2 Bft)
08.05.2017 09:00 7,7 C 97 % 1016,5 hPa 0,0 l/m 3,7 km/h (1 Bft) O 7,2 C 7,7 C 9,9 km/h (2 Bft)
08.05.2017 10:00 7,8 C 95 % 1016,8 hPa 0,0 l/m 3,5 km/h (1 Bft) O 6,9 C 7,8 C 10,1 km/h (2 Bft)
08.05.2017 11:00 7,9 C 93 % 1017,1 hPa 0,0 l/m 3,5 km/h (1 Bft) O-NO 6,8 C 7,9 C 9,4 km/h (2 Bft)
08.05.2017 12:00 8,2 C 92 % 1017,3 hPa 0,0 l/m 3,9 km/h (1 Bft) O-NO 7,0 C 8,2 C 8,7 km/h (2 Bft)
08.05.2017 13:00 8,1 C 92 % 1017,6 hPa 0,0 l/m 3,9 km/h (1 Bft) O-NO 6,9 C 8,1 C 10,6 km/h (2 Bft)
08.05.2017 14:00 7,8 C 93 % 1017,6 hPa 0,0 l/m 3,8 km/h (1 Bft) O 6,8 C 7,8 C 10,9 km/h (2 Bft)
08.05.2017 15:00 7,9 C 92 % 1017,6 hPa 0,0 l/m 3,1 km/h (1 Bft) O-NO 6,8 C 7,9 C 8,4 km/h (2 Bft)
08.05.2017 16:00 8,2 C 91 % 1017,5 hPa 0,0 l/m 2,9 km/h (1 Bft) O-NO 6,9 C 8,2 C 7,9 km/h (2 Bft)
08.05.2017 17:00 7,9 C 91 % 1017,7 hPa 0,0 l/m 3,1 km/h (1 Bft) O-NO 6,4 C 7,9 C 7,6 km/h (2 Bft)
08.05.2017 18:00 8,0 C 89 % 1017,8 hPa 0,0 l/m 3,2 km/h (1 Bft) O-NO 6,4 C 8,0 C 8,5 km/h (2 Bft)
08.05.2017 19:00 7,3 C 89 % 1018,0 hPa 0,0 l/m 2,2 km/h (1 Bft) O 5,7 C 7,3 C 7,6 km/h (2 Bft)
08.05.2017 20:00 6,7 C 92 % 1018,3 hPa 0,0 l/m 1,8 km/h (1 Bft) O-NO 5,5 C 6,7 C 4,4 km/h (1 Bft)
08.05.2017 21:00 6,6 C 91 % 1018,8 hPa 0,0 l/m 1,7 km/h (1 Bft) O 5,2 C 6,6 C 5,3 km/h (1 Bft)
08.05.2017 22:00 6,4 C 93 % 1019,2 hPa 0,0 l/m 1,1 km/h (1 Bft) O-NO 5,2 C 6,4 C 3,6 km/h (1 Bft)
08.05.2017 23:00 5,1 C 93 % 1019,6 hPa 0,5 l/m 0,6 km/h (0 Bft) NO 4,1 C 5,1 C 2,9 km/h (1 Bft)
09.05.2017 00:00 4,7 C 95 % 1019,4 hPa 0,0 l/m 0,2 km/h (0 Bft) N 4,0 C 4,7 C 0,8 km/h (0 Bft)
09.05.2017 01:00 4,6 C 95 % 1019,3 hPa 0,0 l/m 0,1 km/h (0 Bft) O-NO 3,8 C 4,6 C 1,5 km/h (1 Bft)
09.05.2017 02:00 4,3 C 95 % 1019,0 hPa 0,0 l/m 0,1 km/h (0 Bft) O-NO 3,6 C 4,3 C 0,8 km/h (0 Bft)
09.05.2017 03:00 4,2 C 96 % 1018,7 hPa 0,0 l/m 0,3 km/h (0 Bft) O-NO 3,5 C 4,2 C 1,9 km/h (1 Bft)
09.05.2017 04:00 3,5 C 95 % 1018,7 hPa 0,0 l/m 0,0 km/h (0 Bft) O-NO 2,8 C 3,5 C 0,3 km/h (0 Bft)
09.05.2017 05:00 2,3 C 96 % 1018,6 hPa 0,0 l/m 0,1 km/h (0 Bft) O-NO 1,7 C 2,3 C 0,7 km/h (0 Bft)
09.05.2017 06:00 2,1 C 97 % 1018,5 hPa 0,0 l/m 0,0 km/h (0 Bft) O-NO 1,6 C 2,1 C 0,4 km/h (0 Bft)
09.05.2017 07:00 3,0 C 98 % 1018,6 hPa 0,0 l/m 0,0 km/h (0 Bft) O-NO 2,7 C 3,0 C 0,9 km/h (0 Bft)
09.05.2017 08:00 4,6 C 98 % 1018,6 hPa 0,0 l/m 0,3 km/h (0 Bft) O-NO 4,3 C 4,6 C 1,7 km/h (1 Bft)
09.05.2017 09:00 6,7 C 87 % 1018,4 hPa 0,0 l/m 1,6 km/h (1 Bft) S-SW 4,7 C 6,7 C 4,9 km/h (1 Bft)
09.05.2017 10:00 6,5 C 87 % 1018,5 hPa 0,3 l/m 1,9 km/h (1 Bft) NO 4,4 C 6,5 C 5,2 km/h (1 Bft)
09.05.2017 11:00 7,2 C 88 % 1018,3 hPa 0,0 l/m 1,3 km/h (1 Bft) NO 5,2 C 7,2 C 3,9 km/h (1 Bft)
09.05.2017 12:00 8,9 C 77 % 1018,0 hPa 0,0 l/m 2,8 km/h (1 Bft) NO 5,0 C 8,9 C 5,6 km/h (2 Bft)
09.05.2017 13:00 9,5 C 69 % 1017,5 hPa 0,0 l/m 2,5 km/h (1 Bft) NW 4,1 C 9,5 C 6,4 km/h (2 Bft)
09.05.2017 14:00 10,5 C 65 % 1017,0 hPa 0,0 l/m 2,9 km/h (1 Bft) W-SW 4,2 C 10,5 C 8,7 km/h (2 Bft)
09.05.2017 15:00 11,1 C 57 % 1016,3 hPa 0,0 l/m 1,9 km/h (1 Bft) S 2,9 C 11,1 C 5,7 km/h (2 Bft)
09.05.2017 16:00 11,1 C 60 % 1015,7 hPa 0,0 l/m 2,7 km/h (1 Bft) W-NW 3,7 C 11,1 C 7,5 km/h (2 Bft)
09.05.2017 17:00 10,2 C 66 % 1015,4 hPa 0,0 l/m 2,4 km/h (1 Bft) NW 4,1 C 10,2 C 5,8 km/h (2 Bft)
09.05.2017 18:00 10,0 C 67 % 1015,2 hPa 0,0 l/m 2,4 km/h (1 Bft) NW 4,3 C 10,0 C 6,0 km/h (2 Bft)
09.05.2017 19:00 9,4 C 70 % 1014,8 hPa 0,0 l/m 1,9 km/h (1 Bft) W-SW 4,2 C 9,4 C 5,3 km/h (1 Bft)
09.05.2017 20:00 8,1 C 74 % 1014,7 hPa 0,0 l/m 0,8 km/h (0 Bft) W 3,9 C 8,1 C 3,1 km/h (1 Bft)
09.05.2017 21:00 5,6 C 84 % 1014,7 hPa 0,0 l/m 0,0 km/h (0 Bft) W 3,2 C 5,6 C 0,3 km/h (0 Bft)
09.05.2017 22:00 3,7 C 90 % 1014,7 hPa 0,0 l/m 0,0 km/h (0 Bft) W 2,1 C 3,7 C 0,0 km/h (0 Bft)
09.05.2017 23:00 2,3 C 92 % 1014,5 hPa 0,0 l/m 0,0 km/h (0 Bft) W 1,1 C 2,3 C 0,0 km/h (0 Bft)
10.05.2017 00:00 1,2 C 93 % 1014,2 hPa 0,0 l/m 0,0 km/h (0 Bft) W 0,2 C 1,2 C 0,0 km/h (0 Bft)
10.05.2017 01:00 0,3 C 95 % 1013,9 hPa 0,0 l/m 0,0 km/h (0 Bft) W -0,5 C 0,3 C 0,0 km/h (0 Bft)
10.05.2017 02:00 -0,3 C 95 % 1013,4 hPa 0,0 l/m 0,0 km/h (0 Bft) W -1,0 C -0,3 C 0,0 km/h (0 Bft)
10.05.2017 03:00 -0,7 C 95 % 1012,7 hPa 0,0 l/m 0,0 km/h (0 Bft) W -1,4 C -0,7 C 0,0 km/h (0 Bft)
10.05.2017 04:00 -1,2 C 96 % 1012,2 hPa 0,0 l/m 0,0 km/h (0 Bft) W -1,8 C -1,2 C 0,0 km/h (0 Bft)
10.05.2017 05:00 -1,6 C 96 % 1011,6 hPa 0,0 l/m 0,0 km/h (0 Bft) W -2,2 C -1,6 C 0,0 km/h (0 Bft)
10.05.2017 06:00 -1,7 C 96 % 1011,5 hPa 0,0 l/m 0,0 km/h (0 Bft) W -2,3 C -1,7 C 0,0 km/h (0 Bft)
10.05.2017 07:00 -0,0 C 97 % 1011,5 hPa 0,0 l/m 0,0 km/h (0 Bft) W -0,5 C -0,0 C 0,0 km/h (0 Bft)
10.05.2017 08:00 4,8 C 88 % 1011,2 hPa 0,0 l/m 0,0 km/h (0 Bft) W 2,9 C 4,8 C 0,0 km/h (0 Bft)
10.05.2017 09:00 9,1 C 73 % 1010,8 hPa 0,0 l/m 0,0 km/h (0 Bft) W 4,5 C 9,1 C 0,3 km/h (0 Bft)
10.05.2017 10:00 11,6 C 59 % 1010,3 hPa 0,0 l/m 2,4 km/h (1 Bft) W-NW 3,8 C 11,6 C 7,0 km/h (2 Bft)
10.05.2017 11:00 13,3 C 50 % 1009,8 hPa 0,0 l/m 2,5 km/h (1 Bft) NW 3,0 C 13,3 C 7,5 km/h (2 Bft)
10.05.2017 12:00 14,5 C 45 % 1009,3 hPa 0,0 l/m 3,8 km/h (1 Bft) NW 2,9 C 14,5 C 7,9 km/h (2 Bft)
10.05.2017 13:00 16,1 C 41 % 1008,8 hPa 0,0 l/m 3,5 km/h (1 Bft) O 2,9 C 16,1 C 10,3 km/h (2 Bft)
10.05.2017 14:00 17,5 C 38 % 1008,1 hPa 0,0 l/m 3,3 km/h (1 Bft) O-NO 3,1 C 17,5 C 8,2 km/h (2 Bft)
10.05.2017 15:00 18,6 C 36 % 1007,2 hPa 0,0 l/m 3,5 km/h (1 Bft) O-NO 3,3 C 18,6 C 8,0 km/h (2 Bft)
10.05.2017 16:00 19,2 C 36 % 1006,5 hPa 0,0 l/m 3,4 km/h (1 Bft) NW 3,6 C 19,2 C 7,8 km/h (2 Bft)
10.05.2017 17:00 19,7 C 35 % 1005,7 hPa 0,0 l/m 3,1 km/h (1 Bft) O-NO 3,8 C 19,7 C 6,5 km/h (2 Bft)
10.05.2017 18:00 19,2 C 37 % 1005,2 hPa 0,0 l/m 2,8 km/h (1 Bft) NW 4,3 C 19,2 C 5,0 km/h (1 Bft)
10.05.2017 19:00 18,0 C 43 % 1004,7 hPa 0,0 l/m 1,5 km/h (1 Bft) W 5,3 C 18,0 C 3,0 km/h (1 Bft)
10.05.2017 20:00 14,8 C 60 % 1004,6 hPa 0,0 l/m 0,1 km/h (0 Bft) N 7,0 C 14,8 C 0,7 km/h (0 Bft)
10.05.2017 21:00 10,9 C 73 % 1004,8 hPa 0,0 l/m 0,0 km/h (0 Bft) N 6,2 C 10,9 C 0,2 km/h (0 Bft)
10.05.2017 22:00 8,1 C 82 % 1005,0 hPa 0,0 l/m 0,0 km/h (0 Bft) N 5,2 C 8,1 C 0,0 km/h (0 Bft)
10.05.2017 23:00 6,7 C 86 % 1005,0 hPa 0,0 l/m 0,0 km/h (0 Bft) N 4,5 C 6,7 C 0,0 km/h (0 Bft)
11.05.2017 00:00 5,8 C 88 % 1005,1 hPa 0,0 l/m 0,0 km/h (0 Bft) N 4,1 C 5,8 C 0,0 km/h (0 Bft)
11.05.2017 01:00 5,3 C 90 % 1005,0 hPa 0,0 l/m 0,0 km/h (0 Bft) NO 3,8 C 5,3 C 0,0 km/h (0 Bft)
11.05.2017 02:00 5,6 C 90 % 1004,6 hPa 0,0 l/m 0,1 km/h (0 Bft) NO 4,2 C 5,6 C 0,8 km/h (0 Bft)
11.05.2017 03:00 5,3 C 91 % 1004,3 hPa 0,0 l/m 0,0 km/h (0 Bft) NO 3,9 C 5,3 C 0,1 km/h (0 Bft)
11.05.2017 04:00 4,8 C 92 % 1003,7 hPa 0,0 l/m 0,0 km/h (0 Bft) NO 3,7 C 4,8 C 0,4 km/h (0 Bft)
11.05.2017 05:00 4,6 C 94 % 1003,2 hPa 0,0 l/m 0,0 km/h (0 Bft) NO 3,7 C 4,6 C 0,3 km/h (0 Bft)
11.05.2017 06:00 5,0 C 94 % 1003,0 hPa 0,0 l/m 0,0 km/h (0 Bft) NO 4,1 C 5,0 C 0,0 km/h (0 Bft)
11.05.2017 07:00 6,3 C 93 % 1002,5 hPa 0,0 l/m 0,2 km/h (0 Bft) NO 5,2 C 6,3 C 1,1 km/h (0 Bft)
11.05.2017 08:00 7,8 C 90 % 1002,2 hPa 0,0 l/m 0,5 km/h (0 Bft) NO 6,3 C 7,8 C 1,9 km/h (1 Bft)
11.05.2017 09:00 9,3 C 88 % 1002,1 hPa 0,0 l/m 0,3 km/h (0 Bft) NO 7,4 C 9,3 C 1,7 km/h (1 Bft)
11.05.2017 10:00 12,9 C 75 % 1001,6 hPa 0,0 l/m 1,4 km/h (1 Bft) S-SW 8,5 C 12,9 C 4,1 km/h (1 Bft)
11.05.2017 11:00 17,3 C 52 % 1000,7 hPa 0,0 l/m 4,1 km/h (1 Bft) NW 7,3 C 17,3 C 9,4 km/h (2 Bft)
11.05.2017 12:00 18,3 C 50 % 1000,5 hPa 0,0 l/m 3,0 km/h (1 Bft) W-NW 7,6 C 18,3 C 6,3 km/h (2 Bft)
11.05.2017 13:00 19,6 C 49 % 999,7 hPa 0,0 l/m 2,7 km/h (1 Bft) SW 8,4 C 19,6 C 8,2 km/h (2 Bft)
11.05.2017 14:00 20,0 C 47 % 999,2 hPa 0,0 l/m 2,5 km/h (1 Bft) N-NO 8,4 C 20,0 C 6,6 km/h (2 Bft)
11.05.2017 15:00 19,4 C 50 % 998,9 hPa 0,0 l/m 1,0 km/h (0 Bft) N-NO 8,6 C 19,4 C 3,2 km/h (1 Bft)
11.05.2017 16:00 19,1 C 52 % 998,4 hPa 0,0 l/m 0,8 km/h (0 Bft) SO 8,9 C 19,1 C 3,1 km/h (1 Bft)
11.05.2017 17:00 18,4 C 55 % 998,0 hPa 0,0 l/m 1,3 km/h (1 Bft) SO 9,2 C 18,4 C 3,0 km/h (1 Bft)
11.05.2017 18:00 17,6 C 59 % 997,8 hPa 0,0 l/m 1,4 km/h (1 Bft) W-SW 9,4 C 17,6 C 3,1 km/h (1 Bft)
11.05.2017 19:00 16,4 C 71 % 997,4 hPa 0,0 l/m 0,2 km/h (0 Bft) O-NO 11,0 C 16,4 C 1,6 km/h (1 Bft)
11.05.2017 20:00 14,9 C 77 % 997,6 hPa 0,0 l/m 0,1 km/h (0 Bft) O-NO 10,9 C 14,9 C 0,9 km/h (0 Bft)
11.05.2017 21:00 13,5 C 82 % 998,3 hPa 0,0 l/m 0,1 km/h (0 Bft) O-NO 10,4 C 13,5 C 0,9 km/h (0 Bft)
11.05.2017 22:00 12,8 C 82 % 998,7 hPa 0,0 l/m 0,5 km/h (0 Bft) NW 9,9 C 12,8 C 2,3 km/h (1 Bft)
11.05.2017 23:00 12,6 C 82 % 999,2 hPa 0,0 l/m 0,5 km/h (0 Bft) O 9,6 C 12,6 C 2,1 km/h (1 Bft)
12.05.2017 00:00 12,2 C 84 % 999,5 hPa 0,0 l/m 1,6 km/h (1 Bft) O 9,6 C 12,2 C 4,1 km/h (1 Bft)
12.05.2017 01:00 12,3 C 87 % 1000,1 hPa 0,0 l/m 1,3 km/h (1 Bft) O-NO 10,2 C 12,3 C 4,3 km/h (1 Bft)
12.05.2017 02:00 11,8 C 89 % 1000,4 hPa 0,0 l/m 1,3 km/h (1 Bft) NO 10,0 C 11,8 C 4,3 km/h (1 Bft)
12.05.2017 03:00 12,0 C 84 % 1000,8 hPa 0,0 l/m 3,8 km/h (1 Bft) O-NO 9,3 C 12,0 C 9,8 km/h (2 Bft)
12.05.2017 04:00 11,7 C 83 % 1001,0 hPa 0,0 l/m 4,0 km/h (1 Bft) O-NO 9,0 C 11,7 C 10,2 km/h (2 Bft)
12.05.2017 05:00 10,8 C 87 % 1001,3 hPa 0,0 l/m 0,4 km/h (0 Bft) O 8,6 C 10,8 C 1,4 km/h (1 Bft)
12.05.2017 06:00 10,0 C 89 % 1001,6 hPa 0,0 l/m 0,3 km/h (0 Bft) O 8,3 C 10,0 C 1,3 km/h (1 Bft)
12.05.2017 07:00 11,6 C 82 % 1001,9 hPa 0,0 l/m 3,7 km/h (1 Bft) O-NO 8,5 C 11,6 C 8,6 km/h (2 Bft)
12.05.2017 08:00 13,4 C 74 % 1002,3 hPa 0,0 l/m 4,7 km/h (1 Bft) NO 8,9 C 13,4 C 11,5 km/h (2 Bft)
12.05.2017 09:00 15,1 C 69 % 1002,4 hPa 0,0 l/m 5,9 km/h (2 Bft) NO 9,5 C 15,0 C 14,4 km/h (3 Bft)
12.05.2017 10:00 16,0 C 66 % 1002,6 hPa 0,0 l/m 5,7 km/h (2 Bft) O-NO 9,7 C 15,9 C 13,8 km/h (3 Bft)
12.05.2017 11:00 17,9 C 59 % 1002,7 hPa 0,0 l/m 6,1 km/h (2 Bft) O-NO 9,7 C 17,7 C 14,6 km/h (3 Bft)
12.05.2017 12:00 19,0 C 54 % 1002,8 hPa 0,0 l/m 5,9 km/h (2 Bft) O-NO 9,4 C 18,8 C 12,0 km/h (2 Bft)
12.05.2017 13:00 19,3 C 50 % 1002,7 hPa 0,0 l/m 4,4 km/h (1 Bft) O 8,5 C 19,3 C 10,6 km/h (2 Bft)
12.05.2017 14:00 19,3 C 48 % 1002,8 hPa 0,0 l/m 4,6 km/h (1 Bft) NO 8,1 C 19,3 C 11,3 km/h (2 Bft)
12.05.2017 15:00 18,2 C 56 % 1003,1 hPa 0,0 l/m 3,9 km/h (1 Bft) NO 9,2 C 18,2 C 10,2 km/h (2 Bft)
12.05.2017 16:00 13,9 C 74 % 1004,4 hPa 0,5 l/m 5,6 km/h (2 Bft) O-NO 9,1 C 13,3 C 13,4 km/h (3 Bft)
12.05.2017 17:00 13,2 C 84 % 1003,2 hPa 0,5 l/m 1,6 km/h (1 Bft) NO 10,5 C 13,2 C 3,8 km/h (1 Bft)
12.05.2017 18:00 14,3 C 77 % 1003,5 hPa 0,0 l/m 2,5 km/h (1 Bft) NO 10,4 C 14,3 C 4,6 km/h (1 Bft)
12.05.2017 19:00 14,6 C 79 % 1004,0 hPa 0,0 l/m 2,3 km/h (1 Bft) O 11,1 C 14,6 C 5,9 km/h (2 Bft)
12.05.2017 20:00 14,0 C 85 % 1004,5 hPa 0,0 l/m 0,3 km/h (0 Bft) O 11,5 C 14,0 C 1,6 km/h (1 Bft)
12.05.2017 21:00 12,9 C 89 % 1005,2 hPa 0,0 l/m 0,1 km/h (0 Bft) O 11,1 C 12,9 C 0,7 km/h (0 Bft)
12.05.2017 22:00 11,1 C 91 % 1006,0 hPa 0,0 l/m 0,2 km/h (0 Bft) O 9,7 C 11,1 C 1,1 km/h (0 Bft)
12.05.2017 23:00 10,0 C 92 % 1006,8 hPa 0,0 l/m 0,4 km/h (0 Bft) O-SO 8,7 C 10,0 C 2,0 km/h (1 Bft)
13.05.2017 00:00 9,0 C 92 % 1007,4 hPa 0,0 l/m 0,0 km/h (0 Bft) O-SO 7,8 C 9,0 C 0,2 km/h (0 Bft)
13.05.2017 01:00 8,0 C 95 % 1007,9 hPa 0,0 l/m 0,0 km/h (0 Bft) O-SO 7,2 C 8,0 C 0,3 km/h (0 Bft)
13.05.2017 02:00 7,4 C 94 % 1008,2 hPa 0,0 l/m 0,0 km/h (0 Bft) O 6,5 C 7,4 C 0,0 km/h (0 Bft)
13.05.2017 03:00 6,9 C 95 % 1008,4 hPa 0,0 l/m 0,0 km/h (0 Bft) O 6,2 C 6,9 C 0,0 km/h (0 Bft)
13.05.2017 04:00 6,7 C 96 % 1009,0 hPa 0,0 l/m 0,0 km/h (0 Bft) O 6,1 C 6,7 C 0,0 km/h (0 Bft)
13.05.2017 05:00 6,6 C 96 % 1009,4 hPa 0,0 l/m 0,0 km/h (0 Bft) O 5,9 C 6,6 C 0,0 km/h (0 Bft)
13.05.2017 06:00 6,4 C 96 % 1009,9 hPa 0,0 l/m 0,0 km/h (0 Bft) O 5,9 C 6,4 C 0,0 km/h (0 Bft)
13.05.2017 07:00 9,1 C 96 % 1010,5 hPa 0,0 l/m 0,3 km/h (0 Bft) O 8,5 C 9,1 C 1,3 km/h (1 Bft)
13.05.2017 08:00 13,3 C 83 % 1010,9 hPa 0,0 l/m 0,3 km/h (0 Bft) O-NO 10,4 C 13,3 C 1,9 km/h (1 Bft)
13.05.2017 09:00 15,5 C 73 % 1011,4 hPa 0,0 l/m 5,2 km/h (1 Bft) NO 10,6 C 15,4 C 12,4 km/h (2 Bft)
13.05.2017 10:00 16,3 C 67 % 1012,0 hPa 0,0 l/m 6,6 km/h (2 Bft) O-NO 10,3 C 16,0 C 16,6 km/h (3 Bft)
13.05.2017 11:00 17,2 C 63 % 1012,3 hPa 0,0 l/m 4,0 km/h (1 Bft) O-NO 10,1 C 17,2 C 8,9 km/h (2 Bft)
13.05.2017 12:00 17,4 C 63 % 1012,4 hPa 0,0 l/m 3,3 km/h (1 Bft) O 10,2 C 17,4 C 7,0 km/h (2 Bft)
13.05.2017 13:00 18,5 C 58 % 1012,2 hPa 0,0 l/m 3,7 km/h (1 Bft) O-NO 10,1 C 18,5 C 9,1 km/h (2 Bft)
13.05.2017 14:00 20,5 C 48 % 1012,2 hPa 0,0 l/m 5,4 km/h (2 Bft) O-NO 9,0 C 20,5 C 14,8 km/h (3 Bft)
13.05.2017 15:00 20,5 C 50 % 1012,2 hPa 0,0 l/m 4,8 km/h (1 Bft) N-NO 9,8 C 20,5 C 11,7 km/h (2 Bft)
13.05.2017 16:00 20,2 C 54 % 1012,1 hPa 0,0 l/m 3,5 km/h (1 Bft) NO 10,7 C 20,2 C 10,0 km/h (2 Bft)
13.05.2017 17:00 20,2 C 52 % 1012,2 hPa 0,0 l/m 2,8 km/h (1 Bft) O 9,9 C 20,2 C 6,1 km/h (2 Bft)
13.05.2017 18:00 19,1 C 54 % 1012,8 hPa 0,0 l/m 2,0 km/h (1 Bft) O-NO 9,5 C 19,1 C 4,1 km/h (1 Bft)
13.05.2017 19:00 16,2 C 69 % 1013,9 hPa 0,0 l/m 3,8 km/h (1 Bft) O 10,2 C 16,0 C 8,0 km/h (2 Bft)
13.05.2017 20:00 13,0 C 83 % 1014,8 hPa 0,0 l/m 1,8 km/h (1 Bft) O 10,2 C 13,0 C 3,7 km/h (1 Bft)
13.05.2017 21:00 12,0 C 85 % 1015,4 hPa 0,3 l/m 0,3 km/h (0 Bft) O 9,6 C 12,0 C 1,2 km/h (1 Bft)
13.05.2017 22:00 11,2 C 89 % 1016,0 hPa 0,0 l/m 0,2 km/h (0 Bft) N 9,5 C 11,2 C 0,5 km/h (0 Bft)
13.05.2017 23:00 11,1 C 91 % 1016,4 hPa 0,0 l/m 0,1 km/h (0 Bft) N 9,6 C 11,1 C 0,4 km/h (0 Bft)
14.05.2017 00:00 10,9 C 91 % 1016,9 hPa 0,0 l/m 0,0 km/h (0 Bft) N 9,5 C 10,9 C 0,3 km/h (0 Bft)
14.05.2017 01:00 10,7 C 93 % 1017,4 hPa 0,0 l/m 0,1 km/h (0 Bft) O 9,5 C 10,7 C 0,7 km/h (0 Bft)
14.05.2017 02:00 10,7 C 93 % 1017,7 hPa 0,0 l/m 0,0 km/h (0 Bft) O 9,6 C 10,7 C 0,1 km/h (0 Bft)
14.05.2017 03:00 10,7 C 93 % 1018,0 hPa 0,0 l/m 0,0 km/h (0 Bft) O 9,6 C 10,7 C 0,0 km/h (0 Bft)
14.05.2017 04:00 10,3 C 94 % 1018,2 hPa 0,0 l/m 0,0 km/h (0 Bft) O 9,4 C 10,3 C 0,0 km/h (0 Bft)
14.05.2017 05:00 9,8 C 95 % 1018,5 hPa 0,0 l/m 0,0 km/h (0 Bft) O 9,0 C 9,8 C 0,0 km/h (0 Bft)
14.05.2017 06:00 9,9 C 95 % 1018,8 hPa 0,0 l/m 0,0 km/h (0 Bft) O 9,2 C 9,9 C 0,0 km/h (0 Bft)
14.05.2017 07:00 10,8 C 94 % 1019,4 hPa 0,0 l/m 0,0 km/h (0 Bft) O 9,9 C 10,8 C 0,0 km/h (0 Bft)
14.05.2017 08:00 12,7 C 88 % 1019,9 hPa 0,0 l/m 0,9 km/h (0 Bft) O 10,7 C 12,7 C 2,4 km/h (1 Bft)
14.05.2017 09:00 14,9 C 79 % 1020,2 hPa 0,0 l/m 3,2 km/h (1 Bft) O-NO 11,3 C 14,9 C 7,6 km/h (2 Bft)
14.05.2017 10:00 16,6 C 66 % 1020,5 hPa 0,0 l/m 2,9 km/h (1 Bft) O-NO 10,2 C 16,6 C 7,2 km/h (2 Bft)
14.05.2017 11:00 17,8 C 57 % 1020,9 hPa 0,0 l/m 3,4 km/h (1 Bft) O-NO 9,1 C 17,8 C 7,5 km/h (2 Bft)
14.05.2017 12:00 18,7 C 53 % 1020,9 hPa 0,0 l/m 4,5 km/h (1 Bft) O 9,1 C 18,7 C 9,7 km/h (2 Bft)
14.05.2017 13:00 18,7 C 54 % 1021,0 hPa 0,0 l/m 3,9 km/h (1 Bft) O-NO 9,1 C 18,7 C 10,1 km/h (2 Bft)
14.05.2017 14:00 15,9 C 77 % 1021,4 hPa 2,3 l/m 3,6 km/h (1 Bft) O 11,9 C 15,8 C 9,0 km/h (2 Bft)
14.05.2017 15:00 13,1 C 87 % 1022,3 hPa 3,0 l/m 4,6 km/h (1 Bft) O 11,1 C 12,7 C 9,8 km/h (2 Bft)
14.05.2017 16:00 13,0 C 90 % 1022,3 hPa 3,6 l/m 1,4 km/h (1 Bft) O-NO 11,4 C 13,0 C 4,4 km/h (1 Bft)
14.05.2017 17:00 14,6 C 90 % 1022,4 hPa 0,0 l/m 1,0 km/h (0 Bft) S 13,0 C 14,6 C 2,6 km/h (1 Bft)
14.05.2017 18:00 15,0 C 89 % 1022,7 hPa 0,0 l/m 0,4 km/h (0 Bft) O-SO 13,2 C 15,0 C 2,0 km/h (1 Bft)
14.05.2017 19:00 14,7 C 87 % 1023,2 hPa 0,0 l/m 1,4 km/h (1 Bft) O-NO 12,5 C 14,7 C 4,0 km/h (1 Bft)
14.05.2017 20:00 13,5 C 90 % 1023,6 hPa 0,0 l/m 0,3 km/h (0 Bft) O-NO 11,9 C 13,5 C 1,7 km/h (1 Bft)
14.05.2017 21:00 11,8 C 93 % 1024,5 hPa 0,0 l/m 0,4 km/h (0 Bft) O-NO 10,7 C 11,8 C 2,0 km/h (1 Bft)
14.05.2017 22:00 10,5 C 95 % 1025,2 hPa 0,0 l/m 0,0 km/h (0 Bft) O-NO 9,7 C 10,5 C 0,4 km/h (0 Bft)
14.05.2017 23:00 9,3 C 95 % 1025,5 hPa 0,0 l/m 0,0 km/h (0 Bft) O-NO 8,4 C 9,3 C 0,5 km/h (0 Bft)
Min-Datum _ 10.05.17 10.05.17 11.05.17 - 14.05.17 - 10.05.17 10.05.17 14.05.17
_ Min-Zeit 06:15 17:25 20:00 - 23:00 - 06:20 06:15 23:05
Minimum _ -1,7 C 33 % 997,2 hPa - 0,0 km/h (0 Bft) - -2,4 C -1,7 C 0,0 km/h (0 Bft)
Max-Datum _ 13.05.17 13.05.17 14.05.17 14.05.17 13.05.17 - 14.05.17 13.05.17 13.05.17
_ Max-Zeit 15:55 07:15 23:50 16:15 19:18 - 17:45 15:55 19:20
Maximum _ 21,5 C 98 % 1025,8 hPa 3,6 l/m 12,9 km/h
O (3 Bft)
- 13,8 C 21,5 C 30,6 km/h
O (5 Bft)
Durchschnitt _ 10,9 C 80 % 1011,3 hPa #15,5 l/m 1,7 km/h (1 Bft) O 7,0 C 10,8 C 4,4 km/h (1 Bft)